createdAt,value
2018-03-11T00:00:07.133Z,7.78
2018-03-11T00:01:06.873Z,7.77
2018-03-11T00:02:06.855Z,7.8
2018-03-11T00:03:07.123Z,7.77
2018-03-11T00:04:07.108Z,7.77
2018-03-11T00:05:07.074Z,7.82
2018-03-11T00:06:07.064Z,7.78
2018-03-11T00:07:06.796Z,7.83
2018-03-11T00:08:07.045Z,7.8
2018-03-11T00:09:07.038Z,7.78
2018-03-11T00:10:06.759Z,7.85
2018-03-11T00:11:07.008Z,7.86
2018-03-11T00:12:06.992Z,7.8
2018-03-11T00:13:06.724Z,7.82
2018-03-11T00:14:06.974Z,7.8
2018-03-11T00:15:06.964Z,7.86
2018-03-11T00:16:06.952Z,7.85
2018-03-11T00:17:06.681Z,7.77
2018-03-11T00:18:06.672Z,7.77
2018-03-11T00:19:06.912Z,7.74
2018-03-11T00:20:06.644Z,7.8
2018-03-11T00:21:06.888Z,7.77
2018-03-11T00:22:06.621Z,7.85
2018-03-11T00:23:06.864Z,7.78
2018-03-11T00:24:06.388Z,7.77
2018-03-11T00:25:06.587Z,7.8
2018-03-11T00:26:06.570Z,7.77
2018-03-11T00:27:06.557Z,7.78
2018-03-11T00:28:06.557Z,7.8
2018-03-11T00:29:06.794Z,7.74
2018-03-11T00:30:06.785Z,7.82
2018-03-11T00:31:06.511Z,7.83
2018-03-11T00:32:06.244Z,7.78
2018-03-11T00:33:06.502Z,7.86
2018-03-11T00:34:06.736Z,7.77
2018-03-11T00:35:06.464Z,7.83
2018-03-11T00:36:06.720Z,7.74
2018-03-11T00:37:06.762Z,7.85
2018-03-11T00:38:06.496Z,7.83
2018-03-11T00:39:06.490Z,7.8
2018-03-11T00:40:06.681Z,7.8
2018-03-11T00:41:06.398Z,7.78
2018-03-11T00:42:06.645Z,7.78
2018-03-11T00:43:06.372Z,7.8
2018-03-11T00:44:06.375Z,7.83
2018-03-11T00:45:06.609Z,7.82
2018-03-11T00:46:06.339Z,7.85
2018-03-11T00:47:06.336Z,7.8
2018-03-11T00:48:06.588Z,7.86
2018-03-11T00:49:06.564Z,7.82
2018-03-11T00:50:06.413Z,7.78
2018-03-11T00:51:06.537Z,7.8
2018-03-11T00:52:06.290Z,7.77
2018-03-11T00:53:06.257Z,7.82
2018-03-11T00:54:05.987Z,7.77
2018-03-11T00:55:06.495Z,7.74
2018-03-11T00:56:06.218Z,7.8
2018-03-11T00:57:06.214Z,7.83
2018-03-11T00:58:06.456Z,7.77
2018-03-11T00:59:06.444Z,7.77
2018-03-11T01:00:06.439Z,7.68
2018-03-11T01:01:06.162Z,7.7
2018-03-11T01:02:06.409Z,7.74
2018-03-11T01:03:06.400Z,7.77
2018-03-11T01:04:06.397Z,7.61
2018-03-11T01:05:06.374Z,7.75
2018-03-11T01:06:06.370Z,7.73
2018-03-11T01:07:06.368Z,7.73
2018-03-11T01:08:06.361Z,7.77
2018-03-11T01:09:06.065Z,7.78
2018-03-11T01:10:06.315Z,7.78
2018-03-11T01:11:06.048Z,7.82
2018-03-11T01:12:05.774Z,7.78
2018-03-11T01:13:06.276Z,7.77
2018-03-11T01:14:06.008Z,7.73
2018-03-11T01:15:06.023Z,7.86
2018-03-11T01:16:05.984Z,7.85
2018-03-11T01:17:05.972Z,7.78
2018-03-11T01:18:06.219Z,7.8
2018-03-11T01:19:05.949Z,7.82
2018-03-11T01:20:06.194Z,7.82
2018-03-11T01:21:05.924Z,7.8
2018-03-11T01:22:06.171Z,7.85
2018-03-11T01:23:06.164Z,7.85
2018-03-11T01:24:05.891Z,7.83
2018-03-11T01:25:05.878Z,7.82
2018-03-11T01:26:05.907Z,7.82
2018-03-11T01:27:05.596Z,7.8
2018-03-11T01:28:05.839Z,7.78
2018-03-11T01:29:06.090Z,7.8
2018-03-11T01:30:05.562Z,7.82
2018-03-11T01:31:06.065Z,7.8
2018-03-11T01:32:05.805Z,7.77
2018-03-11T01:33:05.783Z,7.78
2018-03-11T01:34:06.033Z,7.8
2018-03-11T01:35:06.133Z,7.77
2018-03-11T01:36:06.006Z,7.78
2018-03-11T01:37:05.733Z,7.74
2018-03-11T01:38:05.980Z,7.8
2018-03-11T01:39:05.711Z,7.82
2018-03-11T01:40:05.700Z,7.86
2018-03-11T01:41:05.696Z,7.78
2018-03-11T01:42:05.676Z,7.77
2018-03-11T01:43:05.924Z,7.8
2018-03-11T01:44:05.908Z,7.83
2018-03-11T01:45:05.642Z,7.85
2018-03-11T01:46:05.889Z,7.88
2018-03-11T01:47:05.873Z,7.82
2018-03-11T01:48:05.863Z,7.85
2018-03-11T01:49:05.594Z,7.83
2018-03-11T01:50:05.324Z,7.91
2018-03-11T01:51:05.571Z,7.91
2018-03-11T01:52:05.815Z,7.85
2018-03-11T01:53:05.548Z,7.89
2018-03-11T01:54:05.796Z,7.89
2018-03-11T01:55:05.522Z,7.86
2018-03-11T01:56:05.776Z,7.91
2018-03-11T01:57:05.502Z,7.85
2018-03-11T01:58:05.232Z,7.8
2018-03-11T01:59:05.735Z,7.93
2018-03-11T02:00:05.469Z,7.89
2018-03-11T02:01:05.194Z,7.91
2018-03-11T02:02:05.182Z,7.96
2018-03-11T02:03:05.695Z,7.96
2018-03-11T02:04:05.419Z,7.93
2018-03-11T02:05:05.663Z,7.86
2018-03-11T02:06:05.396Z,7.92
2018-03-11T02:07:05.644Z,7.92
2018-03-11T02:08:05.633Z,7.95
2018-03-11T02:09:05.624Z,7.82
2018-03-11T02:10:05.616Z,7.88
2018-03-11T02:11:05.333Z,7.86
2018-03-11T02:12:05.586Z,7.91
2018-03-11T02:13:05.054Z,7.86
2018-03-11T02:14:05.298Z,7.93
2018-03-11T02:15:05.552Z,7.92
2018-03-11T02:16:05.282Z,7.96
2018-03-11T02:17:05.572Z,7.96
2018-03-11T02:18:05.257Z,7.93
2018-03-11T02:19:05.505Z,7.98
2018-03-11T02:20:05.232Z,7.86
2018-03-11T02:21:05.477Z,7.85
2018-03-11T02:22:05.205Z,7.86
2018-03-11T02:23:04.938Z,7.85
2018-03-11T02:24:05.186Z,7.92
2018-03-11T02:25:04.912Z,7.86
2018-03-11T02:26:05.416Z,7.89
2018-03-11T02:27:04.890Z,7.93
2018-03-11T02:28:05.392Z,7.98
2018-03-11T02:29:05.382Z,7.95
2018-03-11T02:30:05.114Z,7.93
2018-03-11T02:31:05.111Z,7.95
2018-03-11T02:32:05.100Z,7.93
2018-03-11T02:33:05.079Z,7.92
2018-03-11T02:34:05.323Z,7.96
2018-03-11T02:35:05.057Z,7.95
2018-03-11T02:36:04.782Z,7.96
2018-03-11T02:37:05.032Z,7.92
2018-03-11T02:38:05.020Z,7.99
2018-03-11T02:39:05.009Z,7.93
2018-03-11T02:40:05.261Z,7.99
2018-03-11T02:41:04.984Z,7.96
2018-03-11T02:42:04.715Z,7.99
2018-03-11T02:43:05.222Z,7.92
2018-03-11T02:44:04.950Z,7.98
2018-03-11T02:45:04.681Z,8.01
2018-03-11T02:46:04.668Z,7.89
2018-03-11T02:47:05.174Z,7.98
2018-03-11T02:48:05.174Z,7.96
2018-03-11T02:49:04.894Z,7.88
2018-03-11T02:50:04.622Z,7.86
2018-03-11T02:51:04.609Z,7.82
2018-03-11T02:52:05.114Z,7.86
2018-03-11T02:53:05.107Z,7.91
2018-03-11T02:54:04.832Z,7.88
2018-03-11T02:55:04.839Z,7.92
2018-03-11T02:56:05.064Z,7.83
2018-03-11T02:57:04.537Z,7.8
2018-03-11T02:58:04.530Z,7.82
2018-03-11T02:59:04.517Z,7.8
2018-03-11T03:00:04.766Z,7.85
2018-03-11T03:01:04.490Z,7.86
2018-03-11T03:02:04.998Z,7.78
2018-03-11T03:03:04.984Z,7.88
2018-03-11T03:04:04.755Z,7.77
2018-03-11T03:05:04.958Z,7.82
2018-03-11T03:06:04.947Z,7.85
2018-03-11T03:07:04.419Z,7.85
2018-03-11T03:08:04.671Z,7.8
2018-03-11T03:09:04.916Z,7.77
2018-03-11T03:10:04.640Z,7.77
2018-03-11T03:11:04.885Z,7.78
2018-03-11T03:12:04.617Z,7.78
2018-03-11T03:13:04.349Z,7.75
2018-03-11T03:14:04.337Z,7.85
2018-03-11T03:15:04.585Z,7.78
2018-03-11T03:16:04.569Z,7.82
2018-03-11T03:17:04.564Z,7.78
2018-03-11T03:18:04.550Z,7.77
2018-03-11T03:19:04.537Z,7.77
2018-03-11T03:20:04.526Z,7.77
2018-03-11T03:21:04.512Z,7.8
2018-03-11T03:22:04.245Z,7.83
2018-03-11T03:23:04.760Z,7.83
2018-03-11T03:24:04.735Z,7.8
2018-03-11T03:25:04.731Z,7.85
2018-03-11T03:26:04.456Z,7.78
2018-03-11T03:27:04.450Z,7.8
2018-03-11T03:28:04.432Z,7.77
2018-03-11T03:29:04.416Z,7.83
2018-03-11T03:30:04.410Z,7.82
2018-03-11T03:31:04.401Z,7.75
2018-03-11T03:32:04.392Z,7.82
2018-03-11T03:33:04.635Z,7.86
2018-03-11T03:34:04.363Z,7.83
2018-03-11T03:35:04.608Z,7.86
2018-03-11T03:36:04.339Z,7.86
2018-03-11T03:37:04.588Z,7.75
2018-03-11T03:38:04.323Z,7.8
2018-03-11T03:39:04.302Z,7.8
2018-03-11T03:40:04.293Z,7.86
2018-03-11T03:41:04.542Z,7.75
2018-03-11T03:42:04.521Z,7.67
2018-03-11T03:43:04.254Z,7.74
2018-03-11T03:44:04.498Z,7.64
2018-03-11T03:45:04.231Z,7.59
2018-03-11T03:46:04.478Z,7.59
2018-03-11T03:47:04.465Z,7.63
2018-03-11T03:48:04.456Z,7.59
2018-03-11T03:49:04.442Z,7.71
2018-03-11T03:50:04.437Z,7.59
2018-03-11T03:51:04.419Z,7.7
2018-03-11T03:52:04.408Z,7.73
2018-03-11T03:53:04.396Z,7.78
2018-03-11T03:54:04.130Z,7.63
2018-03-11T03:55:04.375Z,7.61
2018-03-11T03:56:04.359Z,7.71
2018-03-11T03:57:04.347Z,7.71
2018-03-11T03:58:04.083Z,7.68
2018-03-11T03:59:04.325Z,7.73
2018-03-11T04:00:04.315Z,7.71
2018-03-11T04:01:04.300Z,7.78
2018-03-11T04:02:04.285Z,7.77
2018-03-11T04:03:04.277Z,7.78
2018-03-11T04:04:04.008Z,7.78
2018-03-11T04:05:04.252Z,7.73
2018-03-11T04:06:04.237Z,7.7
2018-03-11T04:07:04.225Z,7.75
2018-03-11T04:08:04.212Z,7.7
2018-03-11T04:09:04.205Z,7.71
2018-03-11T04:10:04.194Z,7.63
2018-03-11T04:11:04.181Z,7.67
2018-03-11T04:12:03.911Z,7.74
2018-03-11T04:13:04.161Z,7.63
2018-03-11T04:14:04.145Z,7.75
2018-03-11T04:15:04.131Z,7.71
2018-03-11T04:16:04.119Z,7.73
2018-03-11T04:17:04.116Z,7.61
2018-03-11T04:18:03.838Z,7.71
2018-03-11T04:19:03.828Z,7.61
2018-03-11T04:20:04.075Z,7.77
2018-03-11T04:21:04.078Z,7.61
2018-03-11T04:22:04.048Z,7.74
2018-03-11T04:23:04.035Z,7.55
2018-03-11T04:24:04.027Z,7.68
2018-03-11T04:25:04.012Z,7.71
2018-03-11T04:26:03.743Z,7.61
2018-03-11T04:27:03.989Z,7.59
2018-03-11T04:28:03.717Z,7.58
2018-03-11T04:29:03.965Z,7.68
2018-03-11T04:30:03.698Z,7.61
2018-03-11T04:31:03.684Z,7.68
2018-03-11T04:32:03.668Z,7.58
2018-03-11T04:33:03.915Z,7.64
2018-03-11T04:34:03.914Z,7.73
2018-03-11T04:35:03.894Z,7.67
2018-03-11T04:36:03.624Z,7.7
2018-03-11T04:37:03.612Z,7.7
2018-03-11T04:38:03.597Z,7.73
2018-03-11T04:39:03.588Z,7.68
2018-03-11T04:40:03.574Z,7.67
2018-03-11T04:41:03.562Z,7.77
2018-03-11T04:42:03.552Z,7.63
2018-03-11T04:43:03.538Z,7.7
2018-03-11T04:44:03.783Z,7.71
2018-03-11T04:45:03.782Z,7.63
2018-03-11T04:46:03.506Z,7.61
2018-03-11T04:47:03.751Z,7.63
2018-03-11T04:48:03.739Z,7.64
2018-03-11T04:49:03.211Z,7.63
2018-03-11T04:50:03.196Z,7.67
2018-03-11T04:51:03.445Z,7.55
2018-03-11T04:52:03.690Z,7.63
2018-03-11T04:53:03.420Z,7.61
2018-03-11T04:54:03.667Z,7.54
2018-03-11T04:55:03.401Z,7.58
2018-03-11T04:56:03.643Z,7.58
2018-03-11T04:57:03.635Z,7.64
2018-03-11T04:58:03.360Z,7.58
2018-03-11T04:59:03.350Z,7.52
2018-03-11T05:00:03.617Z,7.49
2018-03-11T05:01:03.327Z,7.55
2018-03-11T05:02:03.570Z,7.41
2018-03-11T05:03:03.563Z,7.34
2018-03-11T05:04:03.551Z,7.39
2018-03-11T05:05:03.280Z,7.23
2018-03-11T05:06:03.524Z,7.23
2018-03-11T05:07:03.251Z,7.18
2018-03-11T05:08:02.983Z,7.09
2018-03-11T05:09:03.484Z,7.03
2018-03-11T05:10:03.220Z,6.88
2018-03-11T05:11:03.468Z,6.9
2018-03-11T05:12:03.192Z,6.85
2018-03-11T05:13:03.444Z,6.72
2018-03-11T05:14:02.912Z,6.57
2018-03-11T05:15:03.158Z,6.62
2018-03-11T05:16:03.402Z,6.61
2018-03-11T05:17:03.392Z,6.55
2018-03-11T05:18:03.122Z,6.49
2018-03-11T05:19:03.362Z,6.47
2018-03-11T05:20:03.354Z,6.51
2018-03-11T05:21:03.340Z,6.43
2018-03-11T05:22:03.070Z,6.42
2018-03-11T05:23:03.312Z,6.34
2018-03-11T05:24:03.300Z,6.28
2018-03-11T05:25:03.291Z,6.29
2018-03-11T05:26:03.276Z,6.25
2018-03-11T05:27:03.002Z,6.18
2018-03-11T05:28:03.254Z,6.15
2018-03-11T05:29:03.239Z,6.17
2018-03-11T05:30:02.970Z,6.02
2018-03-11T05:31:03.212Z,6.06
2018-03-11T05:32:03.200Z,6.07
2018-03-11T05:33:03.195Z,6.07
2018-03-11T05:34:03.178Z,6.06
2018-03-11T05:35:03.165Z,6.06
2018-03-11T05:36:02.891Z,6.03
2018-03-11T05:37:03.135Z,6.03
2018-03-11T05:38:03.123Z,6.15
2018-03-11T05:39:03.113Z,6.07
2018-03-11T05:40:02.843Z,6.09
2018-03-11T05:41:02.826Z,6.13
2018-03-11T05:42:03.078Z,6.06
2018-03-11T05:43:02.802Z,6.06
2018-03-11T05:44:03.047Z,6.21
2018-03-11T05:45:02.778Z,6.1
2018-03-11T05:46:02.758Z,6.14
2018-03-11T05:47:03.005Z,6.09
2018-03-11T05:48:02.733Z,6.17
2018-03-11T05:49:02.978Z,6.09
2018-03-11T05:50:02.967Z,6.07
2018-03-11T05:51:02.958Z,6.06
2018-03-11T05:52:02.684Z,6.05
2018-03-11T05:53:02.671Z,6.09
2018-03-11T05:54:02.915Z,6.13
2018-03-11T05:55:02.904Z,6.06
2018-03-11T05:56:02.887Z,6.07
2018-03-11T05:57:02.876Z,6.13
2018-03-11T05:58:02.870Z,6.06
2018-03-11T05:59:02.850Z,6.06
2018-03-11T06:00:02.835Z,6.07
2018-03-11T06:01:02.823Z,6.07
2018-03-11T06:02:02.812Z,6.05
2018-03-11T06:03:02.281Z,6.15
2018-03-11T06:04:02.268Z,6.03
2018-03-11T06:05:02.515Z,6.09
2018-03-11T06:06:02.502Z,6.06
2018-03-11T06:07:02.489Z,6.17
2018-03-11T06:08:02.469Z,6.13
2018-03-11T06:09:02.459Z,6.17
2018-03-11T06:10:02.452Z,6.13
2018-03-11T06:11:02.691Z,6.13
2018-03-11T06:12:02.425Z,6.1
2018-03-11T06:13:02.664Z,6.13
2018-03-11T06:14:02.649Z,6.13
2018-03-11T06:15:02.642Z,6.25
2018-03-11T06:16:02.626Z,6.25
2018-03-11T06:17:02.619Z,6.25
2018-03-11T06:18:02.603Z,6.21
2018-03-11T06:19:02.328Z,6.28
2018-03-11T06:20:02.571Z,6.24
2018-03-11T06:21:02.560Z,6.28
2018-03-11T06:22:02.558Z,6.26
2018-03-11T06:23:02.541Z,6.36
2018-03-11T06:24:02.268Z,6.24
2018-03-11T06:25:02.511Z,6.39
2018-03-11T06:26:01.978Z,6.34
2018-03-11T06:27:02.482Z,6.44
2018-03-11T06:28:02.474Z,6.42
2018-03-11T06:29:02.452Z,6.39
2018-03-11T06:30:02.450Z,6.36
2018-03-11T06:31:02.177Z,6.4
2018-03-11T06:32:01.908Z,6.39
2018-03-11T06:33:02.406Z,6.51
2018-03-11T06:34:02.398Z,6.46
2018-03-11T06:35:02.122Z,6.54
2018-03-11T06:36:02.365Z,6.58
2018-03-11T06:37:02.358Z,6.65
2018-03-11T06:38:02.080Z,6.72
2018-03-11T06:39:02.481Z,6.79
2018-03-11T06:40:02.315Z,6.85
2018-03-11T06:41:02.308Z,6.91
2018-03-11T06:42:02.288Z,7.01
2018-03-11T06:43:02.019Z,7.04
2018-03-11T06:44:02.268Z,7.12
2018-03-11T06:45:02.250Z,7.26
2018-03-11T06:46:01.720Z,7.27
2018-03-11T06:47:02.224Z,7.29
2018-03-11T06:48:01.952Z,7.29
2018-03-11T06:49:02.202Z,7.37
2018-03-11T06:50:02.184Z,7.52
2018-03-11T06:51:02.177Z,7.34
2018-03-11T06:52:01.902Z,7.33
2018-03-11T06:53:01.891Z,7.41
2018-03-11T06:54:01.875Z,7.55
2018-03-11T06:55:02.119Z,7.51
2018-03-11T06:56:02.111Z,7.63
2018-03-11T06:57:01.578Z,7.54
2018-03-11T06:58:01.825Z,7.59
2018-03-11T06:59:01.821Z,7.63
2018-03-11T07:00:02.064Z,7.55
2018-03-11T07:01:01.786Z,7.52
2018-03-11T07:02:02.032Z,7.45
2018-03-11T07:03:01.830Z,7.52
2018-03-11T07:04:02.011Z,7.45
2018-03-11T07:05:01.996Z,7.59
2018-03-11T07:06:01.726Z,7.45
2018-03-11T07:07:01.714Z,7.48
2018-03-11T07:08:01.955Z,7.48
2018-03-11T07:09:01.688Z,7.4
2018-03-11T07:10:01.932Z,7.44
2018-03-11T07:11:01.665Z,7.48
2018-03-11T07:12:01.654Z,7.51
2018-03-11T07:13:01.899Z,7.48
2018-03-11T07:14:01.883Z,7.45
2018-03-11T07:15:01.355Z,7.49
2018-03-11T07:16:01.855Z,7.49
2018-03-11T07:17:01.851Z,7.54
2018-03-11T07:18:01.573Z,7.52
2018-03-11T07:19:01.835Z,7.47
2018-03-11T07:20:01.551Z,7.58
2018-03-11T07:21:01.538Z,7.59
2018-03-11T07:22:01.526Z,7.63
2018-03-11T07:23:01.773Z,7.61
2018-03-11T07:24:01.759Z,7.67
2018-03-11T07:25:01.489Z,7.78
2018-03-11T07:26:01.739Z,7.78
2018-03-11T07:27:01.727Z,7.74
2018-03-11T07:28:01.453Z,7.85
2018-03-11T07:29:01.696Z,7.85
2018-03-11T07:30:01.688Z,7.78
2018-03-11T07:31:01.674Z,7.86
2018-03-11T07:32:01.659Z,7.86
2018-03-11T07:33:01.651Z,7.91
2018-03-11T07:34:01.639Z,7.96
2018-03-11T07:35:01.628Z,7.98
2018-03-11T07:36:01.742Z,7.99
2018-03-11T07:37:01.603Z,8.03
2018-03-11T07:38:01.339Z,8.07
2018-03-11T07:39:01.583Z,8.1
2018-03-11T07:40:01.052Z,8.09
2018-03-11T07:41:01.555Z,8.24
2018-03-11T07:42:01.289Z,8.24
2018-03-11T07:43:01.015Z,8.34
2018-03-11T07:44:01.526Z,8.28
2018-03-11T07:45:01.513Z,8.25
2018-03-11T07:46:01.237Z,8.34
2018-03-11T07:47:01.233Z,8.39
2018-03-11T07:48:01.218Z,8.35
2018-03-11T07:49:01.461Z,8.39
2018-03-11T07:50:01.190Z,8.4
2018-03-11T07:51:00.923Z,8.49
2018-03-11T07:52:01.169Z,8.58
2018-03-11T07:53:01.415Z,8.54
2018-03-11T07:54:01.144Z,8.58
2018-03-11T07:55:01.387Z,8.6
2018-03-11T07:56:01.382Z,8.69
2018-03-11T07:57:01.371Z,8.57
2018-03-11T07:58:01.354Z,8.68
2018-03-11T07:59:01.087Z,8.74
2018-03-11T08:00:01.335Z,8.77
2018-03-11T08:01:01.325Z,8.71
2018-03-11T08:02:01.312Z,8.8
2018-03-11T08:03:01.042Z,8.82
2018-03-11T08:04:01.299Z,8.87
2018-03-11T08:05:01.020Z,9.04
2018-03-11T08:06:01.263Z,9.03
2018-03-11T08:07:01.257Z,9.01
2018-03-11T08:08:01.244Z,9.09
2018-03-11T08:09:00.975Z,9.01
2018-03-11T08:10:00.964Z,9.19
2018-03-11T08:11:00.955Z,9.23
2018-03-11T08:12:01.208Z,9.29
2018-03-11T08:13:01.193Z,9.34
2018-03-11T08:14:01.184Z,9.32
2018-03-11T08:15:00.652Z,9.39
2018-03-11T08:16:01.156Z,9.47
2018-03-11T08:17:01.150Z,9.44
2018-03-11T08:18:01.136Z,9.52
2018-03-11T08:19:01.119Z,9.56
2018-03-11T08:20:00.863Z,9.57
2018-03-11T08:21:00.856Z,9.71
2018-03-11T08:22:00.832Z,9.71
2018-03-11T08:23:01.083Z,9.78
2018-03-11T08:24:00.814Z,9.96
2018-03-11T08:25:01.060Z,10
2018-03-11T08:26:00.794Z,9.95
2018-03-11T08:27:00.785Z,10.18
2018-03-11T08:28:00.775Z,10.14
2018-03-11T08:29:00.504Z,10.26
2018-03-11T08:30:01.008Z,10.25
2018-03-11T08:31:00.742Z,10.32
2018-03-11T08:32:00.731Z,10.42
2018-03-11T08:33:00.977Z,10.36
2018-03-11T08:34:00.965Z,10.46
2018-03-11T08:35:00.957Z,10.49
2018-03-11T08:36:00.952Z,10.54
2018-03-11T08:37:00.937Z,10.58
2018-03-11T08:38:00.674Z,10.63
2018-03-11T08:39:00.918Z,10.63
2018-03-11T08:40:00.646Z,10.69
2018-03-11T08:41:00.910Z,10.73
2018-03-11T08:42:00.886Z,10.76
2018-03-11T08:43:00.619Z,10.77
2018-03-11T08:44:00.619Z,10.79
2018-03-11T08:45:00.602Z,10.83
2018-03-11T08:46:00.599Z,10.85
2018-03-11T08:47:00.582Z,10.85
2018-03-11T08:48:00.570Z,10.87
2018-03-11T08:49:00.824Z,10.9
2018-03-11T08:50:00.813Z,10.94
2018-03-11T08:51:00.802Z,10.98
2018-03-11T08:52:00.531Z,10.87
2018-03-11T08:53:00.782Z,10.9
2018-03-11T08:54:00.257Z,11.02
2018-03-11T08:55:00.506Z,10.98
2018-03-11T08:56:00.499Z,11.15
2018-03-11T08:57:00.749Z,11.09
2018-03-11T08:58:00.478Z,11.12
2018-03-11T08:59:00.506Z,11.26
2018-03-11T09:00:00.204Z,11.2
2018-03-11T09:01:00.192Z,11.3
2018-03-11T09:02:00.700Z,11.35
2018-03-11T09:03:00.686Z,11.41
2018-03-11T09:04:00.165Z,11.46
2018-03-11T09:05:00.180Z,11.52
2018-03-11T09:06:00.403Z,11.53
2018-03-11T09:07:00.399Z,11.57
2018-03-11T09:08:00.130Z,11.57
2018-03-11T09:09:00.647Z,11.61
2018-03-11T09:10:00.628Z,11.64
2018-03-11T09:11:00.360Z,11.7
2018-03-11T09:12:00.094Z,11.68
2018-03-11T09:13:00.339Z,11.6
2018-03-11T09:14:00.077Z,11.78
2018-03-11T09:15:00.581Z,11.76
2018-03-11T09:16:00.573Z,11.82
2018-03-11T09:17:00.565Z,11.88
2018-03-11T09:18:00.042Z,11.89
2018-03-11T09:19:00.551Z,11.97
2018-03-11T09:20:00.539Z,12.04
2018-03-11T09:21:00.275Z,12.05
2018-03-11T09:22:00.522Z,12.16
2018-03-11T09:23:00.511Z,12.18
2018-03-11T09:24:00.511Z,12.26
2018-03-11T09:25:00.498Z,12.33
2018-03-11T09:25:59.972Z,12.44
2018-03-11T09:27:00.482Z,12.44
2018-03-11T09:28:00.479Z,12.43
2018-03-11T09:29:00.209Z,12.43
2018-03-11T09:30:00.470Z,12.38
2018-03-11T09:31:00.453Z,12.4
2018-03-11T09:32:00.180Z,12.44
2018-03-11T09:33:00.176Z,12.43
2018-03-11T09:34:00.164Z,12.45
2018-03-11T09:35:00.166Z,12.45
2018-03-11T09:36:00.148Z,12.44
2018-03-11T09:37:00.143Z,12.38
2018-03-11T09:37:59.877Z,12.38
2018-03-11T09:39:00.130Z,12.51
2018-03-11T09:40:00.123Z,12.43
2018-03-11T09:41:00.114Z,12.37
2018-03-11T09:42:00.111Z,12.45
2018-03-11T09:43:00.105Z,12.43
2018-03-11T09:44:00.087Z,12.44
2018-03-11T09:45:00.339Z,12.48
2018-03-11T09:46:00.325Z,12.59
2018-03-11T09:46:59.806Z,12.63
2018-03-11T09:47:59.800Z,12.81
2018-03-11T09:48:59.792Z,12.88
2018-03-11T09:50:00.308Z,12.95
2018-03-11T09:51:00.032Z,13.11
2018-03-11T09:51:59.768Z,13.31
2018-03-11T09:52:59.760Z,13.48
2018-03-11T09:54:00.011Z,13.55
2018-03-11T09:55:00.007Z,13.7
2018-03-11T09:55:59.996Z,13.7
2018-03-11T09:56:59.789Z,13.88
2018-03-11T09:57:59.984Z,13.95
2018-03-11T09:58:59.977Z,14.06
2018-03-11T09:59:59.710Z,14.12
2018-03-11T10:01:00.219Z,14.24
2018-03-11T10:02:00.213Z,14.3
2018-03-11T10:02:59.948Z,14.38
2018-03-11T10:04:00.197Z,14.36
2018-03-11T10:04:59.936Z,14.48
2018-03-11T10:05:59.933Z,14.48
2018-03-11T10:06:59.920Z,14.51
2018-03-11T10:08:00.223Z,14.66
2018-03-11T10:08:59.908Z,14.66
2018-03-11T10:09:59.902Z,14.71
2018-03-11T10:10:59.896Z,14.74
2018-03-11T10:12:00.146Z,14.64
2018-03-11T10:13:00.140Z,14.85
2018-03-11T10:13:59.618Z,14.94
2018-03-11T10:14:59.876Z,15.01
2018-03-11T10:15:59.605Z,15.01
2018-03-11T10:16:59.854Z,14.97
2018-03-11T10:18:00.114Z,14.94
2018-03-11T10:18:59.844Z,14.85
2018-03-11T10:20:00.095Z,14.85
2018-03-11T10:20:59.837Z,14.74
2018-03-11T10:22:00.156Z,14.67
2018-03-11T10:22:59.825Z,14.67
2018-03-11T10:23:59.557Z,14.7
2018-03-11T10:25:00.067Z,14.66
2018-03-11T10:26:00.069Z,14.74
2018-03-11T10:26:59.542Z,14.75
2018-03-11T10:27:59.797Z,14.75
2018-03-11T10:28:59.787Z,14.82
2018-03-11T10:29:59.777Z,14.82
2018-03-11T10:30:59.772Z,14.75
2018-03-11T10:31:59.765Z,14.86
2018-03-11T10:33:00.028Z,14.85
2018-03-11T10:33:59.498Z,14.9
2018-03-11T10:34:59.490Z,15.05
2018-03-11T10:35:59.999Z,15.1
2018-03-11T10:36:59.479Z,15.19
2018-03-11T10:37:59.474Z,15.31
2018-03-11T10:38:59.727Z,15.43
2018-03-11T10:39:59.720Z,15.51
2018-03-11T10:40:59.718Z,15.6
2018-03-11T10:41:59.451Z,15.63
2018-03-11T10:42:59.447Z,15.71
2018-03-11T10:43:59.956Z,15.73
2018-03-11T10:44:59.691Z,15.74
2018-03-11T10:45:59.690Z,15.71
2018-03-11T10:46:59.683Z,15.7
2018-03-11T10:47:59.419Z,15.63
2018-03-11T10:48:59.941Z,15.63
2018-03-11T10:49:59.667Z,15.58
2018-03-11T10:51:00.105Z,15.59
2018-03-11T10:51:59.658Z,15.58
2018-03-11T10:52:59.651Z,15.58
2018-03-11T10:53:59.909Z,15.56
2018-03-11T10:54:59.384Z,15.56
2018-03-11T10:55:59.631Z,15.62
2018-03-11T10:56:59.637Z,15.7
2018-03-11T10:57:59.625Z,15.77
2018-03-11T10:58:59.360Z,15.84
2018-03-11T10:59:59.615Z,15.92
2018-03-11T11:00:59.873Z,15.89
2018-03-11T11:01:59.606Z,15.95
2018-03-11T11:02:59.596Z,15.93
2018-03-11T11:03:59.339Z,15.93
2018-03-11T11:04:59.844Z,15.99
2018-03-11T11:05:59.326Z,15.98
2018-03-11T11:06:59.586Z,15.96
2018-03-11T11:07:59.577Z,15.99
2018-03-11T11:08:59.829Z,15.95
2018-03-11T11:09:59.569Z,16.06
2018-03-11T11:10:59.563Z,16.08
2018-03-11T11:11:59.554Z,16.04
2018-03-11T11:12:59.808Z,16.1
2018-03-11T11:13:59.803Z,16.16
2018-03-11T11:14:59.540Z,16.22
2018-03-11T11:15:59.536Z,16.29
2018-03-11T11:16:59.790Z,16.27
2018-03-11T11:17:59.527Z,16.33
2018-03-11T11:18:59.780Z,16.27
2018-03-11T11:19:59.527Z,16.26
2018-03-11T11:20:59.517Z,16.14
2018-03-11T11:21:59.511Z,16.14
2018-03-11T11:22:59.761Z,16.11
2018-03-11T11:23:59.507Z,16.17
2018-03-11T11:24:59.494Z,16.13
2018-03-11T11:25:59.491Z,16.08
2018-03-11T11:26:59.229Z,16.22
2018-03-11T11:27:59.223Z,16.33
2018-03-11T11:28:59.476Z,16.25
2018-03-11T11:29:59.475Z,16.29
2018-03-11T11:30:59.745Z,16.32
2018-03-11T11:31:59.719Z,16.27
2018-03-11T11:32:59.717Z,16.26
2018-03-11T11:33:59.453Z,16.27
2018-03-11T11:34:59.191Z,16.3
2018-03-11T11:35:59.442Z,16.13
2018-03-11T11:36:59.180Z,16.22
2018-03-11T11:37:59.177Z,16.25
2018-03-11T11:38:59.688Z,16.29
2018-03-11T11:39:59.424Z,16.34
2018-03-11T11:40:59.420Z,16.27
2018-03-11T11:41:59.678Z,16.26
2018-03-11T11:42:59.666Z,16.29
2018-03-11T11:43:59.408Z,16.26
2018-03-11T11:44:59.662Z,16.32
2018-03-11T11:45:59.142Z,16.34
2018-03-11T11:46:59.647Z,16.36
2018-03-11T11:47:59.388Z,16.32
2018-03-11T11:48:59.128Z,16.44
2018-03-11T11:49:59.380Z,16.49
2018-03-11T11:50:59.638Z,16.47
2018-03-11T11:51:59.371Z,16.57
2018-03-11T11:52:59.111Z,16.65
2018-03-11T11:53:59.620Z,16.66
2018-03-11T11:54:59.102Z,16.69
2018-03-11T11:55:59.612Z,16.67
2018-03-11T11:56:59.350Z,16.77
2018-03-11T11:57:59.086Z,16.82
2018-03-11T11:58:59.597Z,16.72
2018-03-11T11:59:59.082Z,16.73
2018-03-11T12:00:59.590Z,16.57
2018-03-11T12:01:59.586Z,16.55
2018-03-11T12:02:59.322Z,16.47
2018-03-11T12:03:59.064Z,16.48
2018-03-11T12:04:59.059Z,16.34
2018-03-11T12:05:59.574Z,16.29
2018-03-11T12:06:59.567Z,16.34
2018-03-11T12:07:59.563Z,16.17
2018-03-11T12:08:59.578Z,16.34
2018-03-11T12:09:59.297Z,16.22
2018-03-11T12:10:59.291Z,16.27
2018-03-11T12:11:59.285Z,16.27
2018-03-11T12:12:59.544Z,16.33
2018-03-11T12:13:59.278Z,16.33
2018-03-11T12:14:59.532Z,16.36
2018-03-11T12:15:59.527Z,16.22
2018-03-11T12:16:59.008Z,16.32
2018-03-11T12:17:59.264Z,16.25
2018-03-11T12:18:59.001Z,16.21
2018-03-11T12:19:59.253Z,16.27
2018-03-11T12:20:58.992Z,16.33
2018-03-11T12:21:59.503Z,16.25
2018-03-11T12:22:59.238Z,16.29
2018-03-11T12:23:59.239Z,16.27
2018-03-11T12:24:59.492Z,16.26
2018-03-11T12:25:59.489Z,16.27
2018-03-11T12:26:59.224Z,16.42
2018-03-11T12:27:59.222Z,16.47
2018-03-11T12:28:59.482Z,16.49
2018-03-11T12:29:59.471Z,16.48
2018-03-11T12:30:59.467Z,16.45
2018-03-11T12:31:59.203Z,16.39
2018-03-11T12:32:59.490Z,16.27
2018-03-11T12:33:59.452Z,16.3
2018-03-11T12:34:59.194Z,16.32
2018-03-11T12:35:59.193Z,16.25
2018-03-11T12:36:59.188Z,16.36
2018-03-11T12:37:59.436Z,16.3
2018-03-11T12:38:59.435Z,16.33
2018-03-11T12:39:58.914Z,16.29
2018-03-11T12:40:59.507Z,16.42
2018-03-11T12:41:59.423Z,16.37
2018-03-11T12:42:59.420Z,16.47
2018-03-11T12:43:59.415Z,16.48
2018-03-11T12:44:58.938Z,16.59
2018-03-11T12:45:58.889Z,16.63
2018-03-11T12:46:59.143Z,16.72
2018-03-11T12:47:59.144Z,16.7
2018-03-11T12:48:59.394Z,16.76
2018-03-11T12:49:59.136Z,16.82
2018-03-11T12:50:58.872Z,16.84
2018-03-11T12:51:59.127Z,16.74
2018-03-11T12:52:59.380Z,16.84
2018-03-11T12:53:59.121Z,16.88
2018-03-11T12:54:58.859Z,16.85
2018-03-11T12:55:58.855Z,16.92
2018-03-11T12:56:59.366Z,17
2018-03-11T12:57:59.104Z,16.88
2018-03-11T12:58:59.357Z,16.88
2018-03-11T12:59:58.840Z,16.72
2018-03-11T13:00:59.354Z,16.73
2018-03-11T13:01:59.351Z,16.76
2018-03-11T13:02:59.343Z,16.74
2018-03-11T13:03:59.348Z,16.67
2018-03-11T13:04:58.821Z,16.7
2018-03-11T13:05:59.336Z,16.74
2018-03-11T13:06:59.072Z,16.72
2018-03-11T13:07:59.076Z,16.72
2018-03-11T13:08:59.120Z,16.74
2018-03-11T13:09:59.326Z,16.67
2018-03-11T13:10:59.132Z,16.76